createdAt,value
2023-05-05T00:01:23.322Z,13.47
2023-05-05T00:04:02.768Z,13.45
2023-05-05T00:06:42.322Z,13.43
2023-05-05T00:09:21.869Z,13.42
2023-05-05T00:12:06.260Z,13.41
2023-05-05T00:14:45.511Z,13.39
2023-05-05T00:17:24.826Z,13.37
2023-05-05T00:20:04.338Z,13.35
2023-05-05T00:22:43.587Z,13.34
2023-05-05T00:25:22.963Z,13.33
2023-05-05T00:28:07.499Z,13.32
2023-05-05T00:30:47.588Z,13.32
2023-05-05T00:33:27.000Z,13.31
2023-05-05T00:36:06.315Z,13.30
2023-05-05T00:38:45.628Z,13.28
2023-05-05T00:41:24.896Z,13.25
2023-05-05T00:44:09.428Z,13.24
2023-05-05T00:46:50.748Z,13.23
2023-05-05T00:49:30.105Z,13.21
2023-05-05T00:52:11.079Z,13.19
2023-05-05T00:54:50.478Z,13.17
2023-05-05T00:57:31.884Z,13.15
2023-05-05T01:00:18.079Z,13.14
2023-05-05T01:02:58.301Z,13.13
2023-05-05T01:05:49.670Z,13.13
2023-05-05T01:08:48.706Z,13.13
2023-05-05T01:11:36.820Z,13.12
2023-05-05T01:14:21.712Z,13.10
2023-05-05T01:17:14.369Z,13.10
2023-05-05T01:20:06.316Z,13.09
2023-05-05T01:22:52.994Z,13.09
2023-05-05T01:26:10.148Z,13.09
2023-05-05T01:29:21.195Z,13.09
2023-05-05T01:32:11.441Z,13.09
2023-05-05T01:34:59.680Z,13.08
2023-05-05T01:37:49.284Z,13.08
2023-05-05T01:40:33.081Z,13.08
2023-05-05T01:43:16.685Z,13.08
2023-05-05T01:45:58.114Z,13.09
2023-05-05T01:48:43.232Z,13.10
2023-05-05T01:51:26.542Z,13.10
2023-05-05T01:54:11.767Z,13.10
2023-05-05T01:56:53.695Z,13.09
2023-05-05T01:59:36.278Z,13.07
2023-05-05T02:05:11.116Z,13.04
2023-05-05T02:07:53.565Z,13.04
2023-05-05T02:10:34.414Z,13.02
2023-05-05T02:13:16.600Z,13.01
2023-05-05T02:15:58.708Z,12.99
2023-05-05T02:18:40.130Z,12.96
2023-05-05T02:21:24.984Z,12.93
2023-05-05T02:24:04.378Z,12.91
2023-05-05T02:26:47.332Z,12.89
2023-05-05T02:29:31.788Z,12.86
2023-05-05T02:32:17.497Z,12.82
2023-05-05T02:35:00.423Z,12.79
2023-05-05T02:37:47.949Z,12.76
2023-05-05T02:40:31.945Z,12.72
2023-05-05T02:43:15.064Z,12.68
2023-05-05T02:45:54.487Z,12.63
2023-05-05T02:48:34.376Z,12.59
2023-05-05T02:51:14.154Z,12.55
2023-05-05T02:53:58.824Z,12.51
2023-05-05T02:56:47.181Z,12.47
2023-05-05T02:59:40.876Z,12.45
2023-05-05T03:02:28.620Z,12.43
2023-05-05T03:05:14.198Z,12.41
2023-05-05T03:08:03.102Z,12.38
2023-05-05T03:10:54.596Z,12.35
2023-05-05T03:13:36.962Z,12.33
2023-05-05T03:16:18.177Z,12.31
2023-05-05T03:19:00.723Z,12.28
2023-05-05T03:21:40.570Z,12.25
2023-05-05T03:24:21.719Z,12.22
2023-05-05T03:27:06.336Z,12.20
2023-05-05T03:29:45.729Z,12.15
2023-05-05T03:32:25.412Z,12.07
2023-05-05T03:35:04.762Z,12.03
2023-05-05T03:37:44.116Z,11.99
2023-05-05T03:40:32.681Z,11.95
2023-05-05T03:43:25.774Z,11.92
2023-05-05T03:46:05.157Z,11.90
2023-05-05T03:48:44.593Z,11.88
2023-05-05T03:51:23.941Z,11.85
2023-05-05T03:54:03.250Z,11.84
2023-05-05T03:56:42.621Z,11.81
2023-05-05T03:59:26.997Z,11.78
2023-05-05T04:02:06.396Z,11.75
2023-05-05T04:04:46.078Z,11.74
2023-05-05T04:07:25.441Z,11.73
2023-05-05T04:10:04.796Z,11.71
2023-05-05T04:12:44.187Z,11.72
2023-05-05T04:15:29.009Z,11.74
2023-05-05T04:18:08.403Z,11.76
2023-05-05T04:20:47.970Z,11.78
2023-05-05T04:23:27.315Z,11.81
2023-05-05T04:26:06.699Z,11.84
2023-05-05T04:28:46.186Z,11.88
2023-05-05T04:31:30.853Z,11.91
2023-05-05T04:34:10.223Z,11.95
2023-05-05T04:36:49.688Z,12.00
2023-05-05T04:39:29.049Z,12.04
2023-05-05T04:42:08.747Z,12.08
2023-05-05T04:44:48.043Z,12.10
2023-05-05T04:47:32.535Z,12.13
2023-05-05T04:50:12.909Z,12.16
2023-05-05T04:52:52.756Z,12.16
2023-05-05T04:55:32.293Z,12.18
2023-05-05T04:58:11.741Z,12.21
2023-05-05T05:00:51.119Z,12.23
2023-05-05T05:03:35.607Z,12.27
2023-05-05T05:06:15.115Z,12.30
2023-05-05T05:08:54.406Z,12.32
2023-05-05T05:11:33.767Z,12.33
2023-05-05T05:14:13.087Z,12.35
2023-05-05T05:16:53.566Z,12.37
2023-05-05T05:19:37.981Z,12.39
2023-05-05T05:22:17.289Z,12.41
2023-05-05T05:24:56.619Z,12.44
2023-05-05T05:27:35.940Z,12.48
2023-05-05T05:30:16.516Z,12.51
2023-05-05T05:32:56.000Z,12.55
2023-05-05T05:35:40.818Z,12.59
2023-05-05T05:38:20.269Z,12.64
2023-05-05T05:40:59.626Z,12.69
2023-05-05T05:43:38.991Z,12.74
2023-05-05T05:46:18.383Z,12.79
2023-05-05T05:48:57.826Z,12.86
2023-05-05T05:51:42.260Z,12.92
2023-05-05T05:54:21.589Z,12.97
2023-05-05T05:57:00.925Z,13.03
2023-05-05T05:59:40.392Z,13.09
2023-05-05T06:02:20.429Z,13.15
2023-05-05T06:05:00.033Z,13.21
2023-05-05T06:07:44.461Z,13.28
2023-05-05T06:10:27.924Z,13.35
2023-05-05T06:13:07.913Z,13.44
2023-05-05T06:15:47.407Z,13.52
2023-05-05T06:18:26.850Z,13.59
2023-05-05T06:21:06.324Z,13.66
2023-05-05T06:23:50.705Z,13.71
2023-05-05T06:26:30.052Z,13.78
2023-05-05T06:29:11.728Z,13.86
2023-05-05T06:31:51.717Z,13.96
2023-05-05T06:34:31.121Z,14.04
2023-05-05T06:37:10.491Z,14.15
2023-05-05T06:39:55.423Z,14.24
2023-05-05T06:42:34.966Z,14.33
2023-05-05T06:45:15.701Z,14.42
2023-05-05T06:47:55.425Z,14.53
2023-05-05T06:50:34.811Z,14.64
2023-05-05T06:53:14.194Z,14.75
2023-05-05T06:55:58.767Z,14.88
2023-05-05T06:58:38.148Z,15.02
2023-05-05T07:01:17.552Z,15.16
2023-05-05T07:03:57.359Z,15.32
2023-05-05T07:06:37.052Z,15.46
2023-05-05T07:09:17.133Z,15.60
2023-05-05T07:12:02.001Z,15.77
2023-05-05T07:14:41.416Z,15.98
2023-05-05T07:17:20.779Z,16.16
2023-05-05T07:20:00.166Z,16.31
2023-05-05T07:22:39.486Z,16.42
2023-05-05T07:25:18.933Z,16.52
2023-05-05T07:28:03.574Z,16.63
2023-05-05T07:30:42.912Z,16.71
2023-05-05T07:33:22.249Z,16.75
2023-05-05T07:36:01.643Z,16.80
2023-05-05T07:38:41.068Z,16.84
2023-05-05T07:41:20.587Z,16.92
2023-05-05T07:44:04.991Z,17.04
2023-05-05T07:46:44.390Z,17.19
2023-05-05T07:49:23.753Z,17.39
2023-05-05T07:52:03.080Z,17.62
2023-05-05T07:54:43.682Z,17.77
2023-05-05T07:57:23.165Z,17.93
2023-05-05T08:00:07.813Z,18.05
2023-05-05T08:02:47.690Z,18.14
2023-05-05T08:05:27.241Z,18.25
2023-05-05T08:08:07.384Z,18.36
2023-05-05T08:10:46.737Z,18.45
2023-05-05T08:13:26.223Z,18.54
2023-05-05T08:16:10.764Z,18.63
2023-05-05T08:18:50.182Z,18.72
2023-05-05T08:21:29.568Z,18.77
2023-05-05T08:24:08.888Z,18.81
2023-05-05T08:26:48.307Z,18.85
2023-05-05T08:29:27.718Z,18.86
2023-05-05T08:32:12.502Z,18.88
2023-05-05T08:34:51.869Z,18.93
2023-05-05T08:37:31.295Z,19.12
2023-05-05T08:40:10.915Z,19.32
2023-05-05T08:42:51.325Z,19.54
2023-05-05T08:45:30.984Z,19.74
2023-05-05T08:48:16.977Z,19.90
2023-05-05T08:51:04.072Z,20.07
2023-05-05T08:53:58.833Z,20.24
2023-05-05T08:56:41.718Z,20.42
2023-05-05T08:59:24.639Z,20.52
2023-05-05T09:02:06.118Z,20.65
2023-05-05T09:04:50.652Z,20.79
2023-05-05T09:07:30.575Z,20.95
2023-05-05T09:10:12.517Z,21.10
2023-05-05T09:12:52.585Z,21.17
2023-05-05T09:15:32.128Z,21.32
2023-05-05T09:18:15.682Z,21.61
2023-05-05T09:21:00.309Z,21.78
2023-05-05T09:23:39.671Z,21.84
2023-05-05T09:26:19.301Z,21.94
2023-05-05T09:28:59.533Z,22.11
2023-05-05T09:31:39.968Z,22.32
2023-05-05T09:34:23.099Z,22.48
2023-05-05T09:37:07.471Z,22.67
2023-05-05T09:40:01.890Z,22.91
2023-05-05T09:42:43.486Z,23.13
2023-05-05T09:45:33.579Z,23.33
2023-05-05T09:48:13.418Z,23.53
2023-05-05T09:50:53.141Z,23.72
2023-05-05T09:53:47.203Z,23.87
2023-05-05T09:56:27.342Z,23.91
2023-05-05T09:59:15.907Z,23.99
2023-05-05T10:01:56.256Z,24.00
2023-05-05T10:07:30.992Z,24.12
2023-05-05T10:10:18.513Z,24.18
2023-05-05T10:12:59.963Z,24.21
2023-05-05T10:15:39.274Z,24.25
2023-05-05T10:18:25.009Z,24.31
2023-05-05T10:21:06.191Z,24.33
2023-05-05T10:23:52.837Z,24.33
2023-05-05T10:26:46.292Z,24.46
2023-05-05T10:29:38.031Z,24.74
2023-05-05T10:32:56.938Z,25.09
2023-05-05T10:35:38.810Z,25.21
2023-05-05T10:38:20.344Z,25.20
2023-05-05T10:41:00.418Z,25.19
2023-05-05T10:43:45.104Z,25.21
2023-05-05T10:46:25.305Z,25.18
2023-05-05T10:49:13.465Z,25.15
2023-05-05T10:52:02.395Z,25.17
2023-05-05T10:54:50.443Z,25.16
2023-05-05T10:57:34.794Z,25.17
2023-05-05T11:00:55.499Z,25.22
2023-05-05T11:03:34.816Z,25.37
2023-05-05T11:06:21.248Z,25.46
2023-05-05T11:09:00.696Z,25.64
2023-05-05T11:12:10.403Z,25.79
2023-05-05T11:14:49.729Z,25.90
2023-05-05T11:17:58.384Z,25.92
2023-05-05T11:21:08.710Z,25.97
2023-05-05T11:23:49.792Z,26.00
2023-05-05T11:26:56.860Z,26.16
2023-05-05T11:30:11.888Z,26.23
2023-05-05T11:33:26.887Z,26.24
2023-05-05T11:36:13.671Z,26.43
2023-05-05T11:39:18.127Z,26.73
2023-05-05T11:42:20.003Z,26.98
2023-05-05T11:45:00.096Z,27.24
2023-05-05T11:47:40.573Z,27.34
2023-05-05T11:50:25.810Z,27.39
2023-05-05T11:53:10.497Z,27.41
2023-05-05T11:55:49.827Z,27.32
2023-05-05T11:58:29.131Z,27.23
2023-05-05T12:01:11.971Z,27.13
2023-05-05T12:03:51.993Z,27.07
2023-05-05T12:06:31.997Z,27.03
2023-05-05T12:09:22.778Z,27.04
2023-05-05T12:12:04.059Z,27.12
2023-05-05T12:14:44.165Z,27.18
2023-05-05T12:17:23.597Z,27.17
2023-05-05T12:20:03.297Z,27.22
2023-05-05T12:22:42.632Z,27.30
2023-05-05T12:25:27.802Z,27.32
2023-05-05T12:28:07.118Z,27.46
2023-05-05T12:30:46.482Z,27.83
2023-05-05T12:33:25.824Z,28.17
2023-05-05T12:36:05.752Z,28.28
2023-05-05T12:38:45.135Z,28.30
2023-05-05T12:41:30.641Z,28.37
2023-05-05T12:44:10.086Z,28.50
2023-05-05T12:46:54.402Z,28.61
2023-05-05T12:49:35.288Z,28.60
2023-05-05T12:52:15.497Z,28.57
2023-05-05T12:55:02.072Z,28.47
2023-05-05T12:57:46.833Z,28.31
2023-05-05T13:00:26.773Z,28.20
2023-05-05T13:03:07.398Z,28.05
2023-05-05T13:05:47.019Z,27.93
2023-05-05T13:08:26.599Z,27.92
2023-05-05T13:11:05.920Z,27.72
2023-05-05T13:13:50.256Z,27.43
2023-05-05T13:16:29.798Z,27.16
2023-05-05T13:19:09.189Z,26.91
2023-05-05T13:21:48.663Z,26.61
2023-05-05T13:24:38.578Z,26.34
2023-05-05T13:27:26.679Z,26.19
2023-05-05T13:30:11.455Z,26.05
2023-05-05T13:32:50.799Z,25.93
2023-05-05T13:35:30.099Z,25.83
2023-05-05T13:38:09.382Z,25.73
2023-05-05T13:40:48.729Z,25.62
2023-05-05T13:43:28.145Z,25.52
2023-05-05T13:46:20.001Z,25.46
2023-05-05T13:48:59.768Z,25.44
2023-05-05T13:51:40.165Z,25.43
2023-05-05T13:54:19.653Z,25.42
2023-05-05T13:56:59.065Z,25.40
2023-05-05T13:59:38.427Z,25.38
2023-05-05T14:02:22.850Z,25.34
2023-05-05T14:05:02.271Z,25.32
2023-05-05T14:07:41.613Z,25.28
2023-05-05T14:10:21.365Z,25.27
2023-05-05T14:13:00.693Z,25.25
2023-05-05T14:15:40.873Z,25.23
2023-05-05T14:18:25.247Z,25.21
2023-05-05T14:21:04.706Z,25.20
2023-05-05T14:23:44.091Z,25.18
2023-05-05T14:26:23.544Z,25.18
2023-05-05T14:29:02.842Z,25.21
2023-05-05T14:31:42.239Z,25.33
2023-05-05T14:34:26.656Z,25.36
2023-05-05T14:37:05.981Z,25.37
2023-05-05T14:39:45.284Z,25.38
2023-05-05T14:42:24.624Z,25.38
2023-05-05T14:45:04.802Z,25.33
2023-05-05T14:47:44.263Z,25.30
2023-05-05T14:50:28.950Z,25.28
2023-05-05T14:53:08.487Z,25.21
2023-05-05T14:55:47.786Z,25.15
2023-05-05T14:58:27.162Z,25.17
2023-05-05T15:01:06.990Z,25.13
2023-05-05T15:03:46.481Z,25.07
2023-05-05T15:06:30.933Z,25.05
2023-05-05T15:09:10.317Z,25.06
2023-05-05T15:11:49.656Z,25.38
2023-05-05T15:14:28.999Z,25.51
2023-05-05T15:17:09.840Z,25.72
2023-05-05T15:19:49.656Z,25.81
2023-05-05T15:22:34.059Z,25.79
2023-05-05T15:25:16.960Z,25.64
2023-05-05T15:27:56.596Z,25.42
2023-05-05T15:30:37.145Z,25.20
2023-05-05T15:33:16.465Z,24.98
2023-05-05T15:35:55.852Z,24.78
2023-05-05T15:38:40.311Z,24.64
2023-05-05T15:41:19.721Z,24.52
2023-05-05T15:43:59.250Z,24.41
2023-05-05T15:46:40.431Z,24.27
2023-05-05T15:49:19.879Z,24.17
2023-05-05T15:51:59.166Z,24.10
2023-05-05T15:54:43.550Z,24.00
2023-05-05T15:57:23.426Z,23.87
2023-05-05T16:00:02.943Z,23.79
2023-05-05T16:02:42.380Z,23.71
2023-05-05T16:05:23.114Z,23.65
2023-05-05T16:08:02.870Z,23.59
2023-05-05T16:10:47.392Z,23.54
2023-05-05T16:13:26.684Z,23.48
2023-05-05T16:16:05.952Z,23.43
2023-05-05T16:18:46.349Z,23.39
2023-05-05T16:21:25.703Z,23.33
2023-05-05T16:24:04.986Z,23.24
2023-05-05T16:26:49.723Z,23.16
2023-05-05T16:29:29.057Z,23.07
2023-05-05T16:32:08.390Z,23.00
2023-05-05T16:34:47.721Z,22.92
2023-05-05T16:37:27.111Z,22.83
2023-05-05T16:40:07.251Z,22.76
2023-05-05T16:42:51.630Z,22.69
2023-05-05T16:45:30.950Z,22.61
2023-05-05T16:48:10.402Z,22.54
2023-05-05T16:50:49.702Z,22.45
2023-05-05T16:53:29.040Z,22.33
2023-05-05T16:56:08.531Z,22.14
2023-05-05T16:58:53.716Z,21.96
2023-05-05T17:01:33.242Z,21.69
2023-05-05T17:04:13.119Z,21.35
2023-05-05T17:06:52.387Z,20.93
2023-05-05T17:09:31.736Z,20.56
2023-05-05T17:12:11.338Z,20.34
2023-05-05T17:14:55.702Z,20.20
2023-05-05T17:17:35.050Z,19.98
2023-05-05T17:20:15.680Z,19.84
2023-05-05T17:22:54.984Z,19.70
2023-05-05T17:25:34.423Z,19.52
2023-05-05T17:28:13.757Z,19.36
2023-05-05T17:31:00.734Z,19.26
2023-05-05T17:33:40.038Z,19.20
2023-05-05T17:36:19.354Z,19.17
2023-05-05T17:38:58.661Z,19.12
2023-05-05T17:41:37.994Z,19.09
2023-05-05T17:44:17.342Z,19.06
2023-05-05T17:47:01.726Z,19.03
2023-05-05T17:49:41.105Z,19.01
2023-05-05T17:52:20.367Z,18.99
2023-05-05T17:54:59.727Z,18.97
2023-05-05T17:57:39.064Z,18.96
2023-05-05T18:00:19.518Z,18.93
2023-05-05T18:03:03.915Z,18.92
2023-05-05T18:05:43.321Z,18.90
2023-05-05T18:08:22.661Z,18.89
2023-05-05T18:11:03.046Z,18.91
2023-05-05T18:13:42.509Z,18.91
2023-05-05T18:16:21.880Z,18.85
2023-05-05T18:19:06.418Z,18.77
2023-05-05T18:21:45.695Z,18.73
2023-05-05T18:24:25.385Z,18.67
2023-05-05T18:27:04.726Z,18.58
2023-05-05T18:29:44.244Z,18.52
2023-05-05T18:32:23.655Z,18.50
2023-05-05T18:35:08.550Z,18.48
2023-05-05T18:37:47.975Z,18.45
2023-05-05T18:40:27.345Z,18.42
2023-05-05T18:43:06.719Z,18.40
2023-05-05T18:45:46.020Z,18.37
2023-05-05T18:48:25.305Z,18.34
2023-05-05T18:51:13.764Z,18.30
2023-05-05T18:53:53.126Z,18.22
2023-05-05T18:56:32.523Z,18.13
2023-05-05T18:59:11.793Z,18.04
2023-05-05T19:01:51.112Z,17.97
2023-05-05T19:04:31.795Z,17.92
2023-05-05T19:07:27.921Z,17.88
2023-05-05T19:13:00.511Z,17.84
2023-05-05T19:15:39.825Z,17.82
2023-05-05T19:18:19.118Z,17.79
2023-05-05T19:20:58.430Z,17.76
2023-05-05T19:23:42.756Z,17.71
2023-05-05T19:26:23.007Z,17.69
2023-05-05T19:29:05.738Z,17.66
2023-05-05T19:31:45.194Z,17.62
2023-05-05T19:34:24.487Z,17.58
2023-05-05T19:37:03.924Z,17.56
2023-05-05T19:39:49.614Z,17.53
2023-05-05T19:42:29.836Z,17.51
2023-05-05T19:45:09.678Z,17.49
2023-05-05T19:47:49.407Z,17.48
2023-05-05T19:50:29.009Z,17.45
2023-05-05T19:53:08.389Z,17.44
2023-05-05T19:55:52.816Z,17.42
2023-05-05T19:58:32.638Z,17.39
2023-05-05T20:01:13.752Z,17.37
2023-05-05T20:03:53.146Z,17.34
2023-05-05T20:06:33.409Z,17.32
2023-05-05T20:09:13.189Z,17.30
2023-05-05T20:11:57.672Z,17.30
2023-05-05T20:14:36.998Z,17.29
2023-05-05T20:17:16.744Z,17.27
2023-05-05T20:19:56.014Z,17.26
2023-05-05T20:22:35.341Z,17.24
2023-05-05T20:25:16.424Z,17.22
2023-05-05T20:28:00.824Z,17.20
2023-05-05T20:30:40.121Z,17.18
2023-05-05T20:33:19.477Z,17.16
2023-05-05T20:35:58.762Z,17.12
2023-05-05T20:38:38.091Z,17.09
2023-05-05T20:41:17.437Z,17.08
2023-05-05T20:44:01.936Z,17.07
2023-05-05T20:46:41.231Z,17.07
2023-05-05T20:49:20.541Z,17.06
2023-05-05T20:51:59.838Z,17.04
2023-05-05T20:54:40.312Z,17.03
2023-05-05T20:57:19.692Z,17.01
2023-05-05T21:00:05.344Z,16.99
2023-05-05T21:02:44.722Z,16.99
2023-05-05T21:05:24.257Z,16.97
2023-05-05T21:08:03.703Z,16.95
2023-05-05T21:10:43.874Z,16.92
2023-05-05T21:13:23.266Z,16.90
2023-05-05T21:16:07.763Z,16.88
2023-05-05T21:18:48.494Z,16.84
2023-05-05T21:21:28.058Z,16.81
2023-05-05T21:24:08.179Z,16.77
2023-05-05T21:26:50.037Z,16.74
2023-05-05T21:29:35.469Z,16.72
2023-05-05T21:32:20.214Z,16.69
2023-05-05T21:34:59.696Z,16.66
2023-05-05T21:37:39.179Z,16.62
2023-05-05T21:40:19.665Z,16.59
2023-05-05T21:42:58.969Z,16.55
2023-05-05T21:45:38.270Z,16.52
2023-05-05T21:48:22.597Z,16.49
2023-05-05T21:51:02.209Z,16.46
2023-05-05T21:53:41.934Z,16.44
2023-05-05T21:56:21.370Z,16.41
2023-05-05T21:59:00.649Z,16.40
2023-05-05T22:01:40.336Z,16.39
2023-05-05T22:04:24.882Z,16.40
2023-05-05T22:07:04.191Z,16.39
2023-05-05T22:09:44.197Z,16.39
2023-05-05T22:12:23.497Z,16.39
2023-05-05T22:15:02.760Z,16.40
2023-05-05T22:17:42.610Z,16.40
2023-05-05T22:20:27.195Z,16.41
2023-05-05T22:23:06.457Z,16.43
2023-05-05T22:25:45.729Z,16.44
2023-05-05T22:28:24.984Z,16.45
2023-05-05T22:31:04.282Z,16.45
2023-05-05T22:33:43.628Z,16.44
2023-05-05T22:36:28.742Z,16.40
2023-05-05T22:39:08.051Z,16.38
2023-05-05T22:41:47.331Z,16.36
2023-05-05T22:44:26.702Z,16.36
2023-05-05T22:47:06.020Z,16.35
2023-05-05T22:49:45.418Z,16.36
2023-05-05T22:52:30.253Z,16.36
2023-05-05T22:55:10.322Z,16.36
2023-05-05T22:57:51.335Z,16.36
2023-05-05T23:00:30.976Z,16.34
2023-05-05T23:03:10.266Z,16.34
2023-05-05T23:05:49.550Z,16.34
2023-05-05T23:08:33.919Z,16.33
2023-05-05T23:11:13.343Z,16.33
2023-05-05T23:13:52.716Z,16.31
2023-05-05T23:16:32.212Z,16.29
2023-05-05T23:19:11.469Z,16.25
2023-05-05T23:21:53.627Z,16.19
2023-05-05T23:24:38.347Z,16.16
2023-05-05T23:27:17.601Z,16.11
2023-05-05T23:29:56.978Z,16.07
2023-05-05T23:32:36.253Z,16.05
2023-05-05T23:35:16.717Z,16.03
2023-05-05T23:37:56.429Z,16.03
2023-05-05T23:40:41.742Z,16.03
2023-05-05T23:43:21.033Z,16.03
2023-05-05T23:46:00.417Z,16.03
2023-05-05T23:48:39.774Z,16.02
2023-05-05T23:51:19.056Z,16.00
2023-05-05T23:54:01.557Z,16.00
2023-05-05T23:56:48.810Z,15.99
2023-05-05T23:59:28.126Z,15.98
